createdAt,value
2023-04-10T00:01:15.472Z,79.43
2023-04-10T00:03:43.645Z,79.24
2023-04-10T00:06:11.985Z,79.62
2023-04-10T00:08:39.913Z,79.51
2023-04-10T00:11:07.909Z,79.56
2023-04-10T00:13:36.352Z,79.52
2023-04-10T00:16:04.792Z,79.56
2023-04-10T00:18:32.673Z,79.39
2023-04-10T00:21:00.924Z,79.73
2023-04-10T00:23:31.982Z,79.53
2023-04-10T00:25:59.899Z,79.58
2023-04-10T00:28:28.158Z,79.44
2023-04-10T00:30:56.181Z,79.79
2023-04-10T00:33:24.084Z,79.85
2023-04-10T00:35:52.505Z,79.56
2023-04-10T00:38:21.527Z,79.94
2023-04-10T00:40:49.449Z,79.97
2023-04-10T00:43:20.464Z,79.90
2023-04-10T00:45:49.958Z,79.98
2023-04-10T00:48:19.441Z,80.00
2023-04-10T00:50:47.692Z,79.88
2023-04-10T00:53:17.492Z,79.97
2023-04-10T00:55:46.132Z,80.02
2023-04-10T00:58:14.765Z,79.98
2023-04-10T01:00:42.737Z,79.96
2023-04-10T01:03:12.796Z,80.15
2023-04-10T01:06:06.372Z,80.12
2023-04-10T01:09:22.263Z,80.36
2023-04-10T01:11:52.955Z,80.18
2023-04-10T01:14:27.930Z,80.14
2023-04-10T01:17:07.522Z,80.12
2023-04-10T01:19:51.392Z,79.93
2023-04-10T01:22:26.681Z,80.14
2023-04-10T01:25:10.899Z,80.20
2023-04-10T01:28:17.789Z,80.39
2023-04-10T01:30:52.475Z,80.67
2023-04-10T01:33:22.822Z,80.69
2023-04-10T01:35:55.849Z,80.91
2023-04-10T01:38:28.685Z,81.07
2023-04-10T01:40:59.884Z,81.36
2023-04-10T01:43:32.958Z,81.49
2023-04-10T01:46:03.345Z,81.72
2023-04-10T01:48:31.489Z,81.79
2023-04-10T01:51:05.179Z,81.74
2023-04-10T01:53:34.223Z,81.74
2023-04-10T01:56:03.317Z,81.71
2023-04-10T01:58:36.961Z,81.90
2023-04-10T02:01:06.666Z,81.66
2023-04-10T02:03:34.878Z,81.80
2023-04-10T02:06:15.836Z,81.90
2023-04-10T02:08:53.090Z,81.83
2023-04-10T02:11:41.618Z,81.90
2023-04-10T02:14:12.228Z,81.93
2023-04-10T02:16:41.936Z,81.73
2023-04-10T02:19:13.047Z,81.69
2023-04-10T02:21:42.281Z,81.99
2023-04-10T02:24:10.554Z,82.16
2023-04-10T02:26:58.828Z,82.02
2023-04-10T02:29:26.886Z,82.11
2023-04-10T02:31:55.503Z,82.17
2023-04-10T02:34:23.652Z,82.02
2023-04-10T02:36:52.297Z,81.92
2023-04-10T02:39:20.647Z,81.92
2023-04-10T02:41:51.667Z,81.94
2023-04-10T02:44:19.903Z,81.84
2023-04-10T02:46:47.984Z,81.88
2023-04-10T02:49:16.176Z,81.89
2023-04-10T02:51:45.661Z,82.03
2023-04-10T02:54:13.621Z,81.91
2023-04-10T02:56:41.892Z,81.90
2023-04-10T02:59:09.924Z,81.86
2023-04-10T03:01:39.761Z,81.82
2023-04-10T03:04:08.448Z,81.76
2023-04-10T03:06:39.635Z,81.60
2023-04-10T03:09:08.104Z,81.64
2023-04-10T03:11:36.194Z,81.69
2023-04-10T03:14:04.992Z,81.92
2023-04-10T03:16:33.168Z,81.88
2023-04-10T03:19:04.750Z,81.82
2023-04-10T03:21:33.031Z,81.61
2023-04-10T03:24:01.279Z,81.61
2023-04-10T03:26:29.607Z,81.96
2023-04-10T03:28:58.572Z,82.05
2023-04-10T03:31:26.541Z,82.31
2023-04-10T03:33:57.106Z,82.16
2023-04-10T03:36:25.743Z,82.41
2023-04-10T03:38:54.964Z,82.27
2023-04-10T03:41:25.627Z,82.12
2023-04-10T03:43:54.362Z,82.12
2023-04-10T03:46:23.206Z,82.21
2023-04-10T03:48:54.288Z,82.46
2023-04-10T03:51:24.805Z,82.74
2023-04-10T03:53:53.637Z,82.56
2023-04-10T03:56:22.834Z,82.58
2023-04-10T03:58:51.332Z,82.44
2023-04-10T04:01:19.875Z,82.50
2023-04-10T04:04:01.445Z,82.48
2023-04-10T04:06:58.763Z,82.36
2023-04-10T04:09:59.073Z,82.41
2023-04-10T04:12:39.226Z,82.53
2023-04-10T04:15:43.011Z,82.72
2023-04-10T04:18:19.913Z,82.83
2023-04-10T04:20:56.654Z,83.03
2023-04-10T04:23:40.079Z,83.26
2023-04-10T04:26:31.792Z,83.36
2023-04-10T04:29:15.884Z,83.52
2023-04-10T04:32:10.517Z,83.65
2023-04-10T04:34:58.748Z,83.89
2023-04-10T04:37:46.318Z,83.96
2023-04-10T04:40:37.563Z,84.20
2023-04-10T04:43:21.371Z,84.56
2023-04-10T04:46:02.526Z,84.67
2023-04-10T04:48:59.927Z,84.70
2023-04-10T04:51:47.645Z,85.18
2023-04-10T04:54:28.691Z,84.94
2023-04-10T04:57:32.126Z,85.14
2023-04-10T05:00:18.796Z,85.08
2023-04-10T05:03:02.053Z,85.15
2023-04-10T05:05:37.862Z,85.15
2023-04-10T05:08:24.253Z,85.24
2023-04-10T05:11:06.871Z,85.35
2023-04-10T05:13:53.374Z,85.42
2023-04-10T05:16:27.667Z,85.57
2023-04-10T05:19:12.000Z,85.71
2023-04-10T05:22:00.501Z,85.79
2023-04-10T05:24:45.053Z,85.86
2023-04-10T05:27:17.942Z,85.98
2023-04-10T05:30:04.999Z,86.23
2023-04-10T05:32:39.079Z,86.36
2023-04-10T05:35:39.526Z,86.31
2023-04-10T05:38:20.890Z,86.35
2023-04-10T05:41:01.355Z,86.56
2023-04-10T05:43:42.056Z,86.55
2023-04-10T05:46:33.266Z,86.69
2023-04-10T05:49:22.804Z,86.61
2023-04-10T05:52:04.810Z,86.94
2023-04-10T05:54:47.271Z,86.91
2023-04-10T05:57:51.666Z,87.14
2023-04-10T06:00:53.784Z,87.37
2023-04-10T06:03:51.378Z,87.72
2023-04-10T06:06:20.988Z,87.72
2023-04-10T06:08:48.972Z,87.80
2023-04-10T06:11:17.053Z,87.84
2023-04-10T06:13:48.616Z,87.82
2023-04-10T06:16:17.122Z,88.01
2023-04-10T06:18:46.612Z,88.19
2023-04-10T06:21:14.961Z,88.28
2023-04-10T06:23:42.866Z,88.23
2023-04-10T06:26:11.171Z,88.37
2023-04-10T06:28:39.741Z,88.29
2023-04-10T06:31:07.888Z,88.33
2023-04-10T06:33:37.394Z,88.37
2023-04-10T06:36:07.570Z,88.06
2023-04-10T06:38:39.988Z,87.95
2023-04-10T06:41:09.036Z,88.00
2023-04-10T06:43:39.105Z,88.01
2023-04-10T06:46:07.432Z,88.07
2023-04-10T06:48:35.757Z,88.30
2023-04-10T06:51:04.258Z,88.40
2023-04-10T06:53:32.293Z,88.00
2023-04-10T06:56:03.099Z,87.76
2023-04-10T06:58:32.133Z,87.36
2023-04-10T07:01:04.542Z,87.33
2023-04-10T07:03:32.938Z,87.24
2023-04-10T07:06:03.309Z,86.85
2023-04-10T07:08:31.830Z,86.65
2023-04-10T07:10:59.969Z,86.74
2023-04-10T07:13:28.174Z,86.69
2023-04-10T07:15:56.430Z,86.67
2023-04-10T07:18:24.404Z,86.42
2023-04-10T07:20:52.492Z,86.27
2023-04-10T07:23:20.613Z,85.87
2023-04-10T07:25:48.632Z,85.62
2023-04-10T07:28:16.583Z,85.16
2023-04-10T07:30:44.956Z,84.71
2023-04-10T07:33:13.362Z,84.80
2023-04-10T07:35:41.705Z,84.84
2023-04-10T07:38:12.354Z,84.27
2023-04-10T07:40:40.648Z,83.64
2023-04-10T07:43:08.726Z,83.45
2023-04-10T07:45:37.005Z,83.36
2023-04-10T07:48:06.430Z,83.00
2023-04-10T07:50:35.922Z,82.84
2023-04-10T07:53:07.987Z,82.63
2023-04-10T07:55:45.569Z,82.13
2023-04-10T07:58:13.706Z,81.80
2023-04-10T08:00:42.064Z,81.43
2023-04-10T08:03:10.124Z,81.26
2023-04-10T08:05:41.307Z,80.71
2023-04-10T08:08:09.306Z,80.72
2023-04-10T08:10:38.800Z,80.85
2023-04-10T08:13:06.956Z,80.19
2023-04-10T08:15:35.029Z,80.10
2023-04-10T08:18:02.980Z,79.36
2023-04-10T08:20:37.064Z,79.28
2023-04-10T08:23:17.284Z,78.95
2023-04-10T08:25:48.275Z,78.67
2023-04-10T08:28:16.226Z,77.95
2023-04-10T08:30:44.188Z,77.15
2023-04-10T08:33:12.482Z,76.60
2023-04-10T08:35:40.530Z,76.60
2023-04-10T08:38:13.904Z,76.48
2023-04-10T08:40:44.940Z,76.20
2023-04-10T08:43:13.065Z,76.06
2023-04-10T08:45:41.855Z,75.48
2023-04-10T08:48:12.106Z,75.34
2023-04-10T08:50:43.723Z,74.97
2023-04-10T08:53:13.944Z,75.00
2023-04-10T08:55:44.208Z,74.58
2023-04-10T08:58:13.808Z,73.96
2023-04-10T09:00:42.128Z,73.82
2023-04-10T09:03:12.139Z,73.92
2023-04-10T09:05:40.264Z,73.17
2023-04-10T09:08:09.522Z,72.70
2023-04-10T09:10:37.507Z,72.18
2023-04-10T09:13:05.573Z,72.00
2023-04-10T09:16:00.493Z,71.24
2023-04-10T09:18:51.650Z,70.41
2023-04-10T09:21:21.476Z,70.30
2023-04-10T09:23:59.599Z,69.98
2023-04-10T09:26:30.786Z,69.48
2023-04-10T09:29:10.616Z,69.71
2023-04-10T09:31:40.419Z,68.65
2023-04-10T09:34:09.538Z,68.07
2023-04-10T09:36:38.398Z,67.97
2023-04-10T09:39:07.566Z,68.20
2023-04-10T09:41:35.636Z,68.55
2023-04-10T09:44:12.041Z,67.15
2023-04-10T09:46:41.033Z,66.82
2023-04-10T09:49:09.521Z,66.82
2023-04-10T09:51:39.974Z,66.49
2023-04-10T09:54:08.680Z,66.56
2023-04-10T09:56:40.476Z,67.00
2023-04-10T09:59:08.801Z,66.23
2023-04-10T10:01:40.144Z,65.81
2023-04-10T10:04:09.474Z,65.27
2023-04-10T10:06:39.267Z,64.82
2023-04-10T10:09:08.101Z,64.42
2023-04-10T10:11:36.921Z,63.76
2023-04-10T10:14:13.561Z,63.93
2023-04-10T10:16:50.104Z,63.62
2023-04-10T10:19:46.471Z,62.52
2023-04-10T10:22:14.824Z,62.36
2023-04-10T10:24:47.716Z,61.12
2023-04-10T10:27:18.281Z,60.34
2023-04-10T10:29:49.248Z,60.67
2023-04-10T10:32:18.673Z,61.10
2023-04-10T10:34:48.182Z,61.89
2023-04-10T10:37:17.935Z,62.37
2023-04-10T10:40:14.740Z,60.79
2023-04-10T10:43:04.084Z,61.35
2023-04-10T10:45:52.756Z,61.31
2023-04-10T10:48:20.824Z,61.33
2023-04-10T10:50:59.140Z,60.33
2023-04-10T10:53:38.988Z,59.86
2023-04-10T10:56:22.943Z,59.44
2023-04-10T10:58:56.632Z,59.24
2023-04-10T11:01:25.243Z,59.13
2023-04-10T11:03:53.596Z,59.28
2023-04-10T11:06:43.613Z,58.29
2023-04-10T11:09:46.137Z,57.24
2023-04-10T11:12:15.103Z,57.75
2023-04-10T11:14:45.169Z,58.24
2023-04-10T11:17:13.182Z,58.13
2023-04-10T11:20:11.034Z,57.15
2023-04-10T11:23:14.014Z,57.30
2023-04-10T11:25:54.859Z,58.14
2023-04-10T11:28:31.981Z,58.49
2023-04-10T11:31:24.132Z,58.15
2023-04-10T11:34:04.412Z,57.30
2023-04-10T11:36:34.925Z,57.34
2023-04-10T11:39:14.347Z,57.01
2023-04-10T11:41:44.937Z,56.60
2023-04-10T11:44:16.413Z,56.44
2023-04-10T11:46:51.155Z,56.36
2023-04-10T11:49:21.895Z,56.41
2023-04-10T11:51:52.988Z,56.05
2023-04-10T11:54:21.287Z,55.40
2023-04-10T11:57:18.998Z,55.58
2023-04-10T11:59:51.291Z,55.61
2023-04-10T12:02:19.460Z,54.53
2023-04-10T12:04:57.807Z,54.73
2023-04-10T12:07:31.247Z,54.07
2023-04-10T12:10:00.104Z,53.00
2023-04-10T12:12:39.175Z,52.62
2023-04-10T12:15:27.408Z,52.56
2023-04-10T12:17:56.596Z,52.41
2023-04-10T12:20:27.932Z,53.25
2023-04-10T12:22:57.506Z,52.51
2023-04-10T12:25:25.816Z,52.89
2023-04-10T12:27:53.775Z,52.82
2023-04-10T12:30:22.652Z,52.67
2023-04-10T12:32:53.795Z,53.00
2023-04-10T12:35:38.976Z,52.68
2023-04-10T12:38:07.584Z,52.60
2023-04-10T12:40:35.754Z,52.05
2023-04-10T12:43:03.857Z,50.78
2023-04-10T12:45:45.503Z,50.62
2023-04-10T12:48:23.448Z,50.79
2023-04-10T12:50:52.565Z,49.81
2023-04-10T12:53:20.914Z,49.85
2023-04-10T12:56:05.290Z,50.39
2023-04-10T12:58:33.701Z,50.32
2023-04-10T13:01:07.436Z,50.40
2023-04-10T13:03:37.672Z,50.62
2023-04-10T13:06:09.980Z,51.27
2023-04-10T13:08:38.065Z,50.79
2023-04-10T13:11:06.877Z,49.97
2023-04-10T13:13:34.968Z,49.28
2023-04-10T13:16:03.331Z,49.08
2023-04-10T13:18:31.655Z,50.02
2023-04-10T13:20:59.977Z,50.09
2023-04-10T13:23:28.120Z,50.01
2023-04-10T13:25:56.972Z,49.48
2023-04-10T13:28:25.832Z,49.09
2023-04-10T13:30:54.070Z,49.24
2023-04-10T13:33:22.292Z,48.56
2023-04-10T13:35:50.349Z,48.24
2023-04-10T13:38:20.761Z,47.71
2023-04-10T13:40:49.406Z,47.49
2023-04-10T13:43:17.431Z,47.58
2023-04-10T13:45:45.676Z,48.10
2023-04-10T13:48:16.604Z,47.84
2023-04-10T13:50:44.782Z,48.16
2023-04-10T13:53:13.008Z,47.93
2023-04-10T13:55:43.817Z,47.55
2023-04-10T13:58:13.607Z,47.40
2023-04-10T14:00:44.807Z,47.32
2023-04-10T14:03:12.937Z,47.13
2023-04-10T14:05:41.220Z,46.23
2023-04-10T14:08:11.830Z,46.79
2023-04-10T14:10:39.947Z,45.78
2023-04-10T14:13:08.170Z,46.08
2023-04-10T14:15:36.439Z,46.26
2023-04-10T14:18:04.432Z,46.60
2023-04-10T14:20:32.769Z,47.17
2023-04-10T14:23:04.938Z,46.44
2023-04-10T14:25:32.919Z,45.57
2023-04-10T14:28:01.267Z,45.36
2023-04-10T14:30:31.052Z,46.31
2023-04-10T14:32:59.254Z,46.35
2023-04-10T14:35:27.515Z,45.44
2023-04-10T14:37:55.728Z,46.02
2023-04-10T14:40:25.656Z,45.99
2023-04-10T14:42:53.693Z,46.17
2023-04-10T14:45:21.863Z,45.40
2023-04-10T14:47:49.772Z,45.50
2023-04-10T14:50:17.950Z,44.37
2023-04-10T14:52:46.407Z,44.23
2023-04-10T14:55:14.281Z,43.96
2023-04-10T14:57:42.321Z,43.80
2023-04-10T15:00:10.915Z,43.70
2023-04-10T15:02:39.154Z,44.12
2023-04-10T15:05:07.790Z,44.94
2023-04-10T15:07:36.045Z,44.67
2023-04-10T15:10:04.387Z,45.37
2023-04-10T15:12:32.458Z,46.32
2023-04-10T15:15:01.002Z,46.95
2023-04-10T15:17:30.222Z,47.27
2023-04-10T15:19:58.301Z,47.87
2023-04-10T15:22:27.149Z,48.03
2023-04-10T15:24:55.339Z,48.53
2023-04-10T15:27:23.580Z,48.92
2023-04-10T15:29:51.701Z,49.03
2023-04-10T15:32:19.682Z,49.22
2023-04-10T15:34:47.814Z,49.55
2023-04-10T15:37:16.356Z,49.93
2023-04-10T15:39:44.218Z,50.26
2023-04-10T15:42:12.370Z,50.67
2023-04-10T15:44:40.648Z,50.97
2023-04-10T15:47:08.534Z,51.30
2023-04-10T15:49:38.399Z,51.54
2023-04-10T15:52:07.254Z,51.44
2023-04-10T15:54:36.635Z,51.81
2023-04-10T15:57:04.830Z,51.73
2023-04-10T15:59:33.293Z,51.72
2023-04-10T16:02:01.305Z,51.73
2023-04-10T16:04:30.843Z,51.96
2023-04-10T16:06:59.124Z,51.79
2023-04-10T16:09:27.493Z,52.34
2023-04-10T16:11:56.424Z,52.69
2023-04-10T16:14:24.978Z,53.09
2023-04-10T16:16:52.951Z,53.27
2023-04-10T16:19:24.495Z,53.34
2023-04-10T16:21:52.629Z,53.68
2023-04-10T16:24:20.585Z,53.81
2023-04-10T16:26:51.328Z,54.28
2023-04-10T16:29:20.645Z,54.34
2023-04-10T16:31:50.108Z,54.54
2023-04-10T16:34:18.196Z,54.94
2023-04-10T16:36:46.293Z,55.17
2023-04-10T16:39:14.312Z,55.15
2023-04-10T16:41:42.437Z,55.43
2023-04-10T16:44:10.930Z,55.81
2023-04-10T16:46:38.982Z,56.09
2023-04-10T16:49:07.103Z,56.14
2023-04-10T16:51:35.554Z,56.82
2023-04-10T16:54:04.031Z,57.10
2023-04-10T16:56:34.378Z,57.65
2023-04-10T16:59:02.620Z,58.08
2023-04-10T17:01:31.592Z,58.24
2023-04-10T17:03:59.920Z,58.88
2023-04-10T17:06:28.335Z,58.96
2023-04-10T17:08:56.355Z,59.16
2023-04-10T17:11:24.671Z,59.37
2023-04-10T17:13:52.930Z,59.81
2023-04-10T17:16:21.010Z,60.06
2023-04-10T17:18:50.297Z,60.39
2023-04-10T17:21:18.464Z,60.74
2023-04-10T17:23:46.483Z,60.95
2023-04-10T17:26:16.831Z,61.21
2023-04-10T17:28:46.515Z,61.26
2023-04-10T17:31:16.457Z,61.36
2023-04-10T17:33:44.781Z,61.66
2023-04-10T17:36:13.498Z,61.95
2023-04-10T17:38:42.564Z,62.15
2023-04-10T17:41:13.861Z,62.40
2023-04-10T17:43:42.212Z,62.63
2023-04-10T17:46:15.156Z,62.82
2023-04-10T17:48:45.125Z,63.08
2023-04-10T17:51:13.171Z,63.21
2023-04-10T17:53:41.509Z,63.72
2023-04-10T17:56:19.862Z,63.90
2023-04-10T17:59:02.671Z,63.96
2023-04-10T18:01:31.343Z,64.31
2023-04-10T18:04:03.373Z,64.23
2023-04-10T18:06:32.805Z,64.54
2023-04-10T18:09:00.909Z,64.74
2023-04-10T18:11:28.965Z,64.84
2023-04-10T18:13:57.358Z,64.95
2023-04-10T18:16:25.988Z,65.16
2023-04-10T18:18:54.245Z,65.10
2023-04-10T18:21:22.883Z,65.40
2023-04-10T18:23:50.901Z,65.54
2023-04-10T18:26:21.055Z,65.92
2023-04-10T18:28:49.543Z,66.23
2023-04-10T18:31:19.219Z,66.29
2023-04-10T18:33:53.343Z,66.45
2023-04-10T18:36:32.500Z,66.48
2023-04-10T18:39:00.569Z,66.67
2023-04-10T18:41:28.555Z,66.70
2023-04-10T18:44:04.178Z,66.74
2023-04-10T18:46:33.559Z,66.92
2023-04-10T18:49:03.616Z,67.08
2023-04-10T18:51:35.448Z,67.07
2023-04-10T18:54:09.144Z,67.21
2023-04-10T18:56:38.381Z,67.40
2023-04-10T18:59:06.535Z,67.80
2023-04-10T19:01:35.777Z,68.09
2023-04-10T19:04:04.075Z,68.14
2023-04-10T19:06:33.202Z,68.38
2023-04-10T19:09:02.579Z,68.48
2023-04-10T19:11:30.722Z,68.63
2023-04-10T19:14:01.269Z,68.81
2023-04-10T19:16:29.570Z,68.95
2023-04-10T19:18:57.630Z,69.16
2023-04-10T19:21:26.108Z,69.28
2023-04-10T19:23:55.190Z,69.46
2023-04-10T19:26:23.255Z,69.59
2023-04-10T19:28:51.565Z,69.63
2023-04-10T19:31:21.260Z,69.84
2023-04-10T19:33:49.531Z,70.15
2023-04-10T19:36:19.761Z,70.25
2023-04-10T19:38:51.280Z,70.33
2023-04-10T19:41:19.646Z,70.65
2023-04-10T19:43:48.057Z,70.48
2023-04-10T19:46:20.928Z,70.69
2023-04-10T19:48:49.317Z,70.68
2023-04-10T19:51:19.043Z,70.89
2023-04-10T19:53:47.305Z,70.96
2023-04-10T19:56:17.649Z,70.93
2023-04-10T19:58:47.409Z,71.21
2023-04-10T20:01:16.923Z,71.10
2023-04-10T20:03:45.171Z,71.45
2023-04-10T20:06:13.910Z,71.55
2023-04-10T20:08:42.749Z,71.63
2023-04-10T20:11:11.160Z,71.65
2023-04-10T20:13:41.053Z,71.82
2023-04-10T20:16:11.866Z,71.90
2023-04-10T20:18:40.498Z,72.06
2023-04-10T20:21:09.306Z,72.30
2023-04-10T20:23:37.918Z,72.26
2023-04-10T20:26:06.534Z,72.27
2023-04-10T20:28:34.500Z,72.44
2023-04-10T20:31:02.741Z,72.52
2023-04-10T20:33:31.464Z,72.66
2023-04-10T20:35:59.879Z,72.75
2023-04-10T20:38:28.407Z,72.72
2023-04-10T20:40:56.986Z,72.86
2023-04-10T20:43:26.647Z,72.96
2023-04-10T20:45:54.907Z,73.21
2023-04-10T20:48:22.956Z,73.08
2023-04-10T20:50:52.372Z,73.19
2023-04-10T20:53:20.545Z,73.34
2023-04-10T20:55:52.425Z,73.42
2023-04-10T20:58:20.752Z,73.64
2023-04-10T21:00:53.181Z,73.50
2023-04-10T21:03:21.414Z,73.80
2023-04-10T21:05:51.402Z,74.26
2023-04-10T21:08:21.134Z,74.32
2023-04-10T21:10:49.853Z,74.35
2023-04-10T21:13:17.701Z,74.31
2023-04-10T21:15:48.763Z,74.60
2023-04-10T21:18:17.322Z,74.70
2023-04-10T21:20:45.326Z,74.70
2023-04-10T21:23:13.536Z,74.63
2023-04-10T21:25:41.635Z,74.73
2023-04-10T21:28:09.604Z,74.91
2023-04-10T21:30:37.880Z,75.04
2023-04-10T21:33:05.745Z,74.99
2023-04-10T21:35:33.913Z,75.10
2023-04-10T21:38:02.459Z,75.10
2023-04-10T21:40:34.651Z,75.15
2023-04-10T21:43:05.084Z,75.06
2023-04-10T21:45:37.398Z,75.13
2023-04-10T21:48:05.858Z,75.13
2023-04-10T21:50:33.989Z,74.90
2023-04-10T21:53:02.297Z,74.87
2023-04-10T21:55:30.721Z,74.98
2023-04-10T21:57:58.800Z,74.97
2023-04-10T22:00:26.714Z,75.09
2023-04-10T22:02:57.561Z,75.10
2023-04-10T22:05:26.051Z,75.29
2023-04-10T22:07:53.905Z,75.17
2023-04-10T22:10:22.242Z,75.18
2023-04-10T22:12:50.312Z,75.15
2023-04-10T22:15:19.316Z,75.40
2023-04-10T22:17:48.685Z,75.17
2023-04-10T22:20:16.790Z,75.16
2023-04-10T22:22:46.232Z,75.33
2023-04-10T22:25:14.616Z,75.43
2023-04-10T22:27:42.705Z,75.47
2023-04-10T22:30:11.121Z,75.47
2023-04-10T22:32:39.411Z,75.34
2023-04-10T22:35:08.416Z,75.48
2023-04-10T22:37:36.344Z,75.42
2023-04-10T22:40:05.293Z,75.60
2023-04-10T22:42:33.395Z,75.49
2023-04-10T22:45:01.271Z,75.58
2023-04-10T22:47:30.501Z,75.64
2023-04-10T22:49:58.478Z,75.66
2023-04-10T22:52:26.387Z,75.70
2023-04-10T22:54:54.702Z,75.85
2023-04-10T22:57:22.725Z,76.19
2023-04-10T22:59:50.991Z,76.12
2023-04-10T23:02:19.375Z,76.01
2023-04-10T23:04:47.668Z,76.01
2023-04-10T23:07:15.829Z,76.17
2023-04-10T23:09:43.923Z,76.21
2023-04-10T23:12:11.969Z,76.26
2023-04-10T23:14:39.856Z,76.15
2023-04-10T23:17:08.098Z,75.89
2023-04-10T23:19:36.165Z,75.97
2023-04-10T23:22:07.245Z,76.24
2023-04-10T23:24:35.583Z,76.20
2023-04-10T23:27:07.207Z,76.27
2023-04-10T23:29:35.177Z,76.45
2023-04-10T23:32:03.452Z,76.36
2023-04-10T23:34:31.472Z,76.23
2023-04-10T23:36:59.431Z,76.31
2023-04-10T23:39:27.538Z,76.64
2023-04-10T23:41:57.066Z,77.18
2023-04-10T23:44:25.026Z,77.38
2023-04-10T23:46:53.300Z,77.56
2023-04-10T23:49:23.378Z,77.69
2023-04-10T23:51:51.324Z,77.95
2023-04-10T23:54:19.448Z,78.06
2023-04-10T23:56:47.674Z,78.19
2023-04-10T23:59:17.425Z,78.41
